Time;durP1;ratioP1;P1;durP2;ratioP2;P2;SDS_P1;SDS_P2;PMS_P1;PMS_P2;Temp;Humidity;BMP_temperature;BMP_pressure;BME280_temperature;BME280_humidity;BME280_pressure;Samples;Min_cycle;Max_cycle;Signal;HPM_P1;HPM_P2
2021/03/12 00:00:45;;;;;;;22.60;11.17;;;;;;;0.29;72.80;100632.94;5057062;28;20037;-70
2021/03/12 00:03:14;;;;;;;29.47;11.47;;;;;;;0.46;71.80;100639.94;5053073;28;20036;-65
2021/03/12 00:05:52;;;;;;;29.37;11.87;;;;;;;0.67;70.92;100652.81;5053502;28;20057;-69
2021/03/12 00:08:23;;;;;;;25.27;10.87;;;;;;;0.55;70.21;100649.91;5061554;28;20040;-64
2021/03/12 00:10:49;;;;;;;23.80;10.47;;;;;;;0.46;70.16;100652.97;5056665;28;20047;-69
2021/03/12 00:13:14;;;;;;;24.10;10.53;;;;;;;0.71;70.29;100651.75;5062321;28;20219;-64
2021/03/12 00:15:40;;;;;;;23.50;10.53;;;;;;;0.55;70.42;100633.41;5057363;28;20294;-65
2021/03/12 00:18:06;;;;;;;25.17;11.03;;;;;;;0.79;70.29;100623.50;5060806;28;20323;-64
2021/03/12 00:20:37;;;;;;;28.00;11.40;;;;;;;0.77;71.07;100612.31;5046747;28;20029;-66
2021/03/12 00:23:04;;;;;;;25.73;9.97;;;;;;;0.79;70.11;100613.09;5060700;28;20072;-64
2021/03/12 00:25:50;;;;;;;22.33;11.00;;;;;;;0.74;70.87;100615.09;5058034;28;20226;-64
2021/03/12 00:28:17;;;;;;;24.77;11.27;;;;;;;0.72;70.80;100614.31;5053440;28;20109;-64
2021/03/12 00:30:44;;;;;;;25.17;11.03;;;;;;;0.52;72.13;100608.34;5047423;28;20041;-64
2021/03/12 00:33:12;;;;;;;21.37;10.43;;;;;;;0.58;72.10;100622.84;5041929;28;20330;-65
2021/03/12 00:35:40;;;;;;;22.87;10.67;;;;;;;0.51;71.54;100619.69;5047158;28;20153;-64
2021/03/12 00:38:05;;;;;;;26.50;10.53;;;;;;;0.33;72.17;100597.19;5046110;28;20343;-64
2021/03/12 00:40:38;;;;;;;24.43;11.07;;;;;;;0.22;72.45;100605.53;5045534;28;20060;-69
2021/03/12 00:43:04;;;;;;;22.90;10.63;;;;;;;0.23;72.41;100591.59;5040524;28;20064;-69
2021/03/12 00:45:34;;;;;;;20.70;10.40;;;;;;;0.19;71.94;100557.94;5045972;28;20053;-64
2021/03/12 00:47:59;;;;;;;24.67;10.97;;;;;;;0.60;70.87;100600.16;5041816;28;20395;-70
2021/03/12 00:50:32;;;;;;;22.90;10.87;;;;;;;0.75;70.76;100598.53;5044751;28;20032;-64
2021/03/12 00:52:58;;;;;;;24.07;10.90;;;;;;;0.69;68.99;100601.44;5045025;28;20083;-64
2021/03/12 00:55:23;;;;;;;21.30;9.97;;;;;;;0.63;69.10;100602.59;5044420;28;20018;-69
2021/03/12 00:57:49;;;;;;;21.97;11.17;;;;;;;0.65;69.32;100595.53;5052759;28;20079;-64
2021/03/12 01:00:18;;;;;;;22.53;11.03;;;;;;;0.61;68.07;100560.13;5048709;28;20039;-64
2021/03/12 01:02:43;;;;;;;24.07;10.63;;;;;;;0.91;67.49;100602.03;5045706;28;20526;-65
2021/03/12 01:05:09;;;;;;;19.73;9.57;;;;;;;1.17;66.81;100595.47;5051703;28;20041;-72
2021/03/12 01:07:35;;;;;;;21.77;9.90;;;;;;;1.31;66.16;100595.56;5063098;28;20022;-71
2021/03/12 01:10:00;;;;;;;21.70;10.47;;;;;;;1.30;65.71;100588.66;5045668;28;20013;-64
2021/03/12 01:12:26;;;;;;;23.03;10.73;;;;;;;1.34;65.85;100565.84;5048961;28;20033;-67
2021/03/12 01:14:52;;;;;;;25.33;9.80;;;;;;;1.55;65.23;100570.75;5046085;28;20079;-68
2021/03/12 01:17:18;;;;;;;21.00;10.17;;;;;;;1.42;65.66;100572.34;5053139;28;20033;-73
2021/03/12 01:19:43;;;;;;;18.87;9.83;;;;;;;1.28;66.28;100575.69;5051080;28;20033;-72
2021/03/12 01:22:08;;;;;;;22.47;10.43;;;;;;;1.52;65.36;100575.28;5048414;28;20421;-67
2021/03/12 01:24:34;;;;;;;18.33;10.10;;;;;;;1.64;64.80;100579.00;5047850;28;20037;-67
2021/03/12 01:27:00;;;;;;;20.73;10.47;;;;;;;1.69;65.05;100571.75;5048314;28;20331;-73
2021/03/12 01:29:26;;;;;;;33.53;11.30;;;;;;;1.85;63.97;100581.25;5047063;28;20052;-64
2021/03/12 01:31:52;;;;;;;23.43;9.37;;;;;;;1.68;63.38;100588.34;5048607;28;20040;-66
2021/03/12 01:34:18;;;;;;;20.80;10.50;;;;;;;1.72;63.81;100598.53;5046432;28;20092;-72
2021/03/12 01:36:44;;;;;;;20.70;10.83;;;;;;;2.07;62.75;100596.53;5050932;28;20033;-73
2021/03/12 01:39:09;;;;;;;18.07;9.40;;;;;;;2.36;62.27;100594.06;5048209;28;20056;-73
2021/03/12 01:41:35;;;;;;;17.70;9.33;;;;;;;2.38;61.12;100577.34;5049941;28;20029;-73
2021/03/12 01:44:01;;;;;;;21.47;9.80;;;;;;;2.37;61.93;100580.91;5046355;28;20104;-72
2021/03/12 01:46:26;;;;;;;21.30;10.27;;;;;;;2.47;61.16;100584.66;5048285;28;20044;-72
2021/03/12 01:48:52;;;;;;;19.40;9.63;;;;;;;2.73;60.26;100577.88;5047240;28;20040;-67
2021/03/12 01:51:17;;;;;;;18.03;9.43;;;;;;;2.92;59.76;100574.16;5048023;28;20028;-72
2021/03/12 01:53:43;;;;;;;17.00;10.00;;;;;;;3.22;58.59;100558.38;5057960;28;20041;-67
2021/03/12 01:56:09;;;;;;;20.27;10.13;;;;;;;3.31;58.46;100563.88;5060878;28;20040;-67
2021/03/12 01:58:35;;;;;;;21.50;11.40;;;;;;;3.50;57.75;100556.53;5048532;28;20052;-68
2021/03/12 02:01:00;;;;;;;17.77;9.77;;;;;;;3.58;57.61;100542.13;5046951;28;20064;-72
2021/03/12 02:03:28;;;;;;;25.30;11.33;;;;;;;3.71;57.19;100546.47;5046617;28;20056;-72
2021/03/12 02:05:55;;;;;;;26.00;13.10;;;;;;;3.81;57.26;100539.69;5046831;28;20335;-68
2021/03/12 02:08:21;;;;;;;46.13;16.77;;;;;;;3.78;57.32;100532.03;5048276;28;20140;-67
2021/03/12 02:10:50;;;;;;;71.23;20.80;;;;;;;3.85;57.00;100527.25;5053860;28;20040;-72
2021/03/12 02:13:28;;;;;;;52.43;19.33;;;;;;;3.85;58.05;100537.72;5063493;28;20036;-73
2021/03/12 02:16:05;;;;;;;60.63;22.13;;;;;;;3.91;58.19;100539.94;5050407;28;20319;-68
2021/03/12 02:18:46;;;;;;;67.37;25.07;;;;;;;4.04;57.27;100530.34;5048153;28;20049;-67
2021/03/12 02:21:24;;;;;;;19.73;11.13;;;;;;;3.79;57.10;100523.25;5050157;28;20548;-67
2021/03/12 02:23:59;;;;;;;33.03;17.50;;;;;;;3.61;57.92;100511.34;5044502;28;20053;-72
2021/03/12 02:26:30;;;;;;;26.50;15.07;;;;;;;3.71;57.29;100522.06;5047992;28;20040;-73
2021/03/12 02:28:59;;;;;;;27.10;14.33;;;;;;;3.79;57.31;100532.88;5046435;28;20064;-72
2021/03/12 02:31:26;;;;;;;31.87;14.90;;;;;;;3.84;57.49;100536.03;5045646;28;20029;-67
2021/03/12 02:33:54;;;;;;;51.60;19.40;;;;;;;3.77;57.87;100517.25;5047109;28;20100;-67
2021/03/12 02:36:22;;;;;;;105.90;30.40;;;;;;;3.80;57.55;100519.69;5044172;28;20231;-73
2021/03/12 02:38:49;;;;;;;132.27;35.03;;;;;;;3.84;57.67;100530.81;5044741;28;20048;-73
2021/03/12 02:41:16;;;;;;;143.80;39.47;;;;;;;3.83;57.91;100542.22;5045323;28;20027;-67
2021/03/12 02:43:43;;;;;;;88.60;28.23;;;;;;;3.31;59.21;100542.94;5048149;28;20063;-73
2021/03/12 02:46:09;;;;;;;75.53;24.13;;;;;;;3.26;59.83;100552.84;5044133;28;20063;-72
2021/03/12 02:48:36;;;;;;;47.40;18.87;;;;;;;3.74;58.65;100545.44;5048965;28;20033;-67
2021/03/12 02:51:05;;;;;;;27.83;14.43;;;;;;;3.46;58.37;100559.47;5044073;28;20025;-73
2021/03/12 02:53:32;;;;;;;39.33;19.00;;;;;;;3.34;59.00;100563.69;5047346;28;20096;-67
2021/03/12 02:55:58;;;;;;;65.00;27.93;;;;;;;3.24;59.47;100559.97;5045324;28;20045;-73
2021/03/12 02:58:24;;;;;;;54.80;25.27;;;;;;;3.34;59.38;100565.47;5046592;28;20222;-68
2021/03/12 03:00:51;;;;;;;42.00;15.73;;;;;;;3.18;59.12;100555.94;5045744;28;20263;-73
2021/03/12 03:03:17;;;;;;;127.00;25.73;;;;;;;3.30;58.68;100545.66;5046152;28;20064;-68
2021/03/12 03:05:44;;;;;;;177.10;38.93;;;;;;;3.55;57.48;100542.31;5052976;28;20104;-73
2021/03/12 03:08:12;;;;;;;279.73;65.73;;;;;;;3.48;57.74;100526.16;5047317;28;20089;-67
2021/03/12 03:10:38;;;;;;;77.30;29.73;;;;;;;3.37;57.84;100537.31;5043445;28;20035;-67
2021/03/12 03:13:04;;;;;;;245.30;68.93;;;;;;;3.13;58.44;100544.09;5044900;28;20033;-67
2021/03/12 03:15:30;;;;;;;524.20;166.00;;;;;;;3.15;58.84;100540.44;5046094;28;20271;-67
2021/03/12 03:17:57;;;;;;;317.37;103.93;;;;;;;3.13;58.84;100549.31;5043728;28;20033;-68
2021/03/12 03:20:24;;;;;;;166.33;60.90;;;;;;;2.97;59.10;100544.16;5046673;28;20117;-73
2021/03/12 03:22:50;;;;;;;128.37;57.63;;;;;;;3.22;58.72;100540.06;5043919;28;20105;-73
2021/03/12 03:25:18;;;;;;;114.90;49.75;;;;;;;3.15;58.92;100521.28;5059243;28;20406;-73
2021/03/12 03:27:44;;;;;;;91.37;42.30;;;;;;;3.15;59.03;100537.81;5061893;28;20036;-72
2021/03/12 03:30:12;;;;;;;131.33;45.00;;;;;;;3.05;58.85;100539.31;5053008;28;20078;-73
2021/03/12 03:32:38;;;;;;;85.33;30.73;;;;;;;2.83;60.22;100547.63;5062277;28;20044;-73
2021/03/12 03:35:06;;;;;;;49.07;20.73;;;;;;;2.95;59.96;100545.19;5051301;28;20033;-67
2021/03/12 03:37:32;;;;;;;35.40;15.03;;;;;;;3.10;59.61;100547.69;5046623;28;20251;-72
2021/03/12 03:39:59;;;;;;;39.30;20.13;;;;;;;3.22;59.28;100551.38;5047037;28;20037;-73
2021/03/12 03:42:28;;;;;;;34.00;18.73;;;;;;;3.14;59.96;100554.47;5045770;28;20021;-67
2021/03/12 03:44:56;;;;;;;31.57;15.87;;;;;;;3.23;59.39;100545.19;5047402;28;20070;-72
2021/03/12 03:47:22;;;;;;;29.90;14.17;;;;;;;3.13;59.90;100536.25;5050478;28;20024;-72
2021/03/12 03:49:50;;;;;;;29.63;14.53;;;;;;;3.24;59.68;100543.41;5056427;28;20335;-67
2021/03/12 03:52:19;;;;;;;33.77;13.83;;;;;;;3.29;59.06;100542.19;5061988;28;20028;-73
2021/03/12 03:54:47;;;;;;;26.23;13.40;;;;;;;3.27;58.76;100541.44;5055995;28;20048;-72
2021/03/12 03:57:15;;;;;;;25.60;12.83;;;;;;;2.86;60.87;100557.06;5048551;28;20025;-72
2021/03/12 03:59:41;;;;;;;27.33;14.27;;;;;;;2.85;61.13;100558.00;5044465;28;20334;-67
2021/03/12 04:02:13;;;;;;;28.53;13.53;;;;;;;2.88;61.15;100545.56;5043084;28;20086;-73
2021/03/12 04:04:39;;;;;;;21.43;13.07;;;;;;;2.83;60.87;100533.69;5050052;28;20037;-73
2021/03/12 04:07:08;;;;;;;23.10;12.73;;;;;;;2.73;61.13;100533.41;5022623;28;20065;-67
2021/03/12 04:09:35;;;;;;;28.00;13.80;;;;;;;2.90;60.58;100529.78;5025975;28;20058;-72
2021/03/12 04:12:01;;;;;;;23.87;12.80;;;;;;;3.41;59.05;100530.94;5025920;28;20052;-72
2021/03/12 04:14:27;;;;;;;30.57;16.23;;;;;;;3.69;57.94;100526.56;5034633;28;20037;-72
2021/03/12 04:16:54;;;;;;;32.93;16.33;;;;;;;3.57;58.50;100512.47;5040901;28;20327;-71
2021/03/12 04:19:20;;;;;;;36.87;17.70;;;;;;;3.54;58.21;100504.81;5024019;28;20101;-72
2021/03/12 04:21:47;;;;;;;34.30;16.47;;;;;;;2.92;60.04;100499.13;5026579;28;20033;-66
2021/03/12 04:24:13;;;;;;;40.83;17.13;;;;;;;2.70;60.61;100502.22;5039750;28;20030;-72
2021/03/12 04:26:39;;;;;;;35.03;16.90;;;;;;;2.58;61.59;100491.69;5041159;28;20033;-72
2021/03/12 04:29:05;;;;;;;37.57;15.63;;;;;;;2.76;60.57;100486.16;5025761;28;20093;-71
2021/03/12 04:31:31;;;;;;;32.57;16.00;;;;;;;2.45;61.57;100481.97;5023874;28;20034;-72
2021/03/12 04:33:57;;;;;;;38.13;17.13;;;;;;;2.62;60.14;100487.94;5025941;28;20041;-67
2021/03/12 04:36:24;;;;;;;33.23;16.13;;;;;;;2.68;60.01;100498.88;5020923;28;20033;-72
2021/03/12 04:38:50;;;;;;;37.60;16.63;;;;;;;2.70;60.36;100502.22;5025678;28;20445;-67
2021/03/12 04:41:16;;;;;;;35.50;16.50;;;;;;;3.11;59.09;100504.06;5025543;28;20026;-67
2021/03/12 04:43:43;;;;;;;38.23;18.53;;;;;;;2.81;59.93;100483.25;5040796;28;20045;-72
2021/03/12 04:46:11;;;;;;;32.87;17.50;;;;;;;2.61;61.36;100478.41;5026316;28;20307;-66
2021/03/12 04:48:39;;;;;;;32.80;16.77;;;;;;;2.61;61.35;100496.72;5023885;28;20080;-73
2021/03/12 04:51:10;;;;;;;44.47;21.90;;;;;;;2.43;62.74;100517.81;5023510;28;20044;-67
2021/03/12 04:53:39;;;;;;;58.97;26.17;;;;;;;2.48;62.22;100515.75;5023955;28;20041;-67
2021/03/12 04:56:05;;;;;;;192.17;71.90;;;;;;;2.49;61.84;100509.59;5025347;28;20018;-67
2021/03/12 04:58:31;;;;;;;188.30;62.33;;;;;;;2.51;62.22;100507.72;5022417;28;20068;-66
2021/03/12 05:00:57;;;;;;;177.87;60.73;;;;;;;2.64;61.77;100513.06;5025705;28;20025;-72
2021/03/12 05:03:23;;;;;;;99.37;43.00;;;;;;;2.93;61.04;100506.03;5021228;28;20145;-67
2021/03/12 05:05:50;;;;;;;105.00;45.53;;;;;;;2.96;61.04;100497.16;5032339;28;20069;-67
2021/03/12 05:08:16;;;;;;;62.43;28.63;;;;;;;2.77;61.94;100511.38;5042555;28;20045;-67
2021/03/12 05:10:57;;;;;;;42.13;20.17;;;;;;;2.40;63.56;100520.59;5041268;28;20323;-73
2021/03/12 05:13:23;;;;;;;52.73;23.07;;;;;;;2.44;63.10;100522.09;5046707;28;20385;-67
2021/03/12 05:15:48;;;;;;;55.20;27.27;;;;;;;2.87;61.78;100509.88;5042510;28;20021;-72
2021/03/12 05:18:14;;;;;;;44.00;22.87;;;;;;;3.10;60.91;100507.63;5047390;28;20048;-69
2021/03/12 05:20:39;;;;;;;30.40;14.93;;;;;;;3.15;60.33;100474.19;5045598;28;20033;-72
2021/03/12 05:23:05;;;;;;;30.83;13.63;;;;;;;3.02;59.88;100474.09;5050214;28;20219;-67
2021/03/12 05:25:30;;;;;;;27.03;13.30;;;;;;;2.64;60.57;100470.38;5044958;28;20033;-72
2021/03/12 05:27:56;;;;;;;26.10;13.67;;;;;;;2.28;61.96;100478.69;5042197;28;20231;-72
2021/03/12 05:30:22;;;;;;;25.60;14.00;;;;;;;2.08;63.34;100479.81;5054077;28;20025;-66
2021/03/12 05:32:48;;;;;;;33.27;15.90;;;;;;;2.04;63.57;100478.31;5060199;28;20306;-66
2021/03/12 05:35:13;;;;;;;28.77;15.87;;;;;;;2.08;63.11;100482.44;5047397;28;20037;-67
2021/03/12 05:37:39;;;;;;;32.13;15.23;;;;;;;1.89;62.75;100488.75;5044902;28;20037;-67
2021/03/12 05:40:05;;;;;;;30.97;13.70;;;;;;;1.89;63.14;100478.28;5042065;28;20040;-71
2021/03/12 05:42:31;;;;;;;27.57;13.50;;;;;;;2.00;63.73;100488.13;5043402;28;20045;-66
2021/03/12 05:44:59;;;;;;;26.20;12.07;;;;;;;1.88;62.46;100488.81;5046524;28;20036;-71
2021/03/12 05:47:24;;;;;;;28.67;13.20;;;;;;;1.96;62.49;100497.06;5047031;28;20053;-72
2021/03/12 05:49:50;;;;;;;25.40;12.23;;;;;;;1.97;62.63;100510.97;5047244;28;20144;-66
2021/03/12 05:52:16;;;;;;;24.17;12.47;;;;;;;1.78;61.72;100517.25;5044847;28;20025;-66
2021/03/12 05:54:44;;;;;;;22.97;11.70;;;;;;;1.71;62.50;100499.41;5049796;28;20355;-71
2021/03/12 05:57:10;;;;;;;24.27;12.63;;;;;;;1.75;60.90;100506.13;5043601;28;20142;-71
2021/03/12 05:59:38;;;;;;;27.47;12.07;;;;;;;1.66;63.15;100523.16;5046586;28;20029;-72
2021/03/12 06:02:04;;;;;;;29.67;13.60;;;;;;;1.61;62.71;100514.75;5047268;28;20238;-67
2021/03/12 06:04:29;;;;;;;30.37;14.87;;;;;;;1.47;62.85;100505.06;5045575;28;20108;-72
2021/03/12 06:06:55;;;;;;;30.27;14.87;;;;;;;1.43;64.29;100500.13;5047723;28;20048;-66
2021/03/12 06:09:21;;;;;;;33.33;15.60;;;;;;;1.44;63.44;100500.03;5044699;28;20045;-66
2021/03/12 06:11:46;;;;;;;35.70;16.63;;;;;;;1.58;62.92;100501.88;5046160;28;20355;-66
2021/03/12 06:14:12;;;;;;;34.03;16.23;;;;;;;1.63;64.12;100499.00;5043787;28;20181;-71
2021/03/12 06:16:38;;;;;;;35.43;17.13;;;;;;;1.60;62.82;100490.41;5048690;28;20334;-72
2021/03/12 06:19:17;;;;;;;37.43;17.40;;;;;;;1.85;63.43;100502.91;5045330;28;20410;-72
2021/03/12 06:21:48;;;;;;;32.33;16.67;;;;;;;2.00;62.73;100506.41;5048293;28;20468;-71
2021/03/12 06:24:26;;;;;;;31.13;15.80;;;;;;;2.28;60.93;100508.25;5044418;28;20041;-72
2021/03/12 06:26:51;;;;;;;30.80;14.97;;;;;;;2.65;59.80;100517.34;5047957;28;20079;-72
2021/03/12 06:29:17;;;;;;;34.43;15.17;;;;;;;3.03;58.39;100514.16;5045374;28;20227;-72
2021/03/12 06:31:51;;;;;;;29.37;15.10;;;;;;;3.22;57.44;100501.63;5045825;28;20599;-67
2021/03/12 06:34:17;;;;;;;30.98;14.82;;;;;;;3.72;56.41;100519.34;5044758;28;20037;-66
2021/03/12 06:36:44;;;;;;;27.70;15.50;;;;;;;4.16;54.77;100536.53;5046202;28;20041;-72
2021/03/12 06:39:10;;;;;;;32.50;14.07;;;;;;;4.66;53.25;100525.28;5047740;28;20134;-72
2021/03/12 06:41:40;;;;;;;47.03;16.57;;;;;;;4.86;52.54;100505.53;5045390;28;20032;-72
2021/03/12 06:44:27;;;;;;;24.40;12.63;;;;;;;4.74;52.12;100498.53;5049942;28;20100;-66
2021/03/12 06:46:53;;;;;;;32.27;14.43;;;;;;;4.63;51.97;100503.69;5044150;28;20025;-72
2021/03/12 06:49:18;;;;;;;29.30;14.27;;;;;;;4.77;51.38;100516.69;5046732;28;20036;-72
2021/03/12 06:51:54;;;;;;;28.23;13.30;;;;;;;4.42;52.15;100519.09;5043570;28;20055;-66
2021/03/12 06:54:19;;;;;;;26.50;13.77;;;;;;;4.04;53.38;100521.63;5042354;28;20053;-67
2021/03/12 06:56:45;;;;;;;30.20;13.77;;;;;;;3.90;55.12;100540.03;5045485;28;20092;-72
2021/03/12 06:59:10;;;;;;;30.60;14.60;;;;;;;4.07;54.41;100547.63;5046577;28;20041;-67
2021/03/12 07:01:36;;;;;;;33.87;15.33;;;;;;;4.55;53.32;100555.81;5044591;28;20110;-73
2021/03/12 07:04:09;;;;;;;26.83;12.57;;;;;;;4.34;53.38;100572.06;5051087;28;20054;-66
2021/03/12 07:07:01;;;;;;;32.85;14.95;;;;;;;4.84;52.16;100575.66;5045114;28;20071;-73
2021/03/12 07:09:28;;;;;;;28.27;13.17;;;;;;;5.50;50.06;100568.44;5047386;28;20037;-71
2021/03/12 07:11:57;;;;;;;25.30;13.00;;;;;;;5.90;47.91;100566.44;5043794;28;20041;-67
2021/03/12 07:14:24;;;;;;;24.23;12.50;;;;;;;5.80;48.22;100568.03;5045323;28;20032;-72
2021/03/12 07:16:50;;;;;;;28.45;12.32;;;;;;;6.03;47.43;100564.59;5045007;28;20111;-72
2021/03/12 07:19:17;;;;;;;24.42;12.45;;;;;;;5.60;48.68;100544.03;5050976;28;20373;-72
2021/03/12 07:21:46;;;;;;;24.38;13.02;;;;;;;5.36;48.55;100543.16;5046964;28;20025;-66
2021/03/12 07:24:15;;;;;;;24.67;12.45;;;;;;;5.92;47.59;100552.25;5043636;28;20029;-69
2021/03/12 07:26:45;;;;;;;21.90;12.43;;;;;;;6.05;47.57;100557.44;5047027;28;20033;-72
2021/03/12 07:29:12;;;;;;;23.63;12.50;;;;;;;6.30;46.06;100561.72;5043946;28;20052;-66
2021/03/12 07:31:41;;;;;;;24.42;13.02;;;;;;;6.43;45.32;100556.38;5047421;28;20021;-66
2021/03/12 07:34:18;;;;;;;26.77;12.52;;;;;;;6.49;47.35;100582.22;5042882;28;20041;-66
2021/03/12 07:36:49;;;;;;;21.02;11.63;;;;;;;6.35;46.51;100594.63;5046118;28;20040;-66
2021/03/12 07:39:43;;;;;;;19.75;12.05;;;;;;;6.69;45.28;100590.28;5052588;28;20180;-71
2021/03/12 07:42:10;;;;;;;19.05;11.50;;;;;;;6.58;44.87;100577.13;5057176;28;20029;-73
2021/03/12 07:44:38;;;;;;;22.88;11.63;;;;;;;6.93;44.16;100584.94;5046228;28;20350;-70
2021/03/12 07:47:04;;;;;;;59.35;20.70;;;;;;;7.33;44.26;100585.34;5055248;28;20254;-72
2021/03/12 07:49:32;;;;;;;20.48;11.68;;;;;;;7.79;43.91;100583.47;5059356;28;20059;-71
2021/03/12 07:51:59;;;;;;;26.50;11.63;;;;;;;8.29;41.93;100580.16;5052652;28;20048;-72
2021/03/12 07:54:48;;;;;;;20.80;11.48;;;;;;;8.57;41.07;100583.22;5060767;28;20039;-71
2021/03/12 07:57:33;;;;;;;20.42;11.48;;;;;;;8.89;40.77;100589.25;5045042;28;20037;-72
2021/03/12 08:00:04;;;;;;;23.80;12.18;;;;;;;8.97;40.49;100580.66;5043643;28;20227;-66
2021/03/12 08:02:56;;;;;;;28.35;12.88;;;;;;;9.21;40.57;100575.91;5044293;28;21322;-72
2021/03/12 08:05:40;;;;;;;24.50;12.18;;;;;;;9.02;40.00;100578.47;5043813;28;20041;-73
2021/03/12 08:08:32;;;;;;;20.00;11.93;;;;;;;8.09;42.99;100580.97;5044761;28;20028;-64
2021/03/12 08:11:17;;;;;;;20.33;12.25;;;;;;;7.90;43.30;100586.91;5041858;28;20033;-72
2021/03/12 08:13:43;;;;;;;22.42;11.50;;;;;;;7.87;44.04;100587.16;5040989;28;20061;-66
2021/03/12 08:16:09;;;;;;;23.38;12.75;;;;;;;7.16;45.62;100580.53;5046782;28;20019;-71
2021/03/12 08:18:35;;;;;;;23.15;13.35;;;;;;;6.23;47.00;100589.41;5045072;28;20212;-72
2021/03/12 08:21:32;;;;;;;23.45;13.50;;;;;;;5.84;49.32;100582.63;5057216;28;20040;-74
2021/03/12 08:24:01;;;;;;;26.27;12.93;;;;;;;6.38;49.23;100597.03;5053208;28;20037;-72
2021/03/12 08:26:46;;;;;;;23.30;12.88;;;;;;;6.23;48.57;100585.00;5060899;28;20032;-74
2021/03/12 08:29:29;;;;;;;22.88;12.35;;;;;;;6.50;48.64;100582.13;5048003;28;20033;-72
2021/03/12 08:31:55;;;;;;;21.83;12.30;;;;;;;6.28;50.43;100571.53;5044012;28;20025;-72
2021/03/12 08:34:40;;;;;;;23.38;12.15;;;;;;;6.21;48.27;100563.22;5047695;28;20646;-66
2021/03/12 08:37:25;;;;;;;25.33;13.85;;;;;;;6.28;48.92;100572.38;5061018;28;20037;-66
2021/03/12 08:39:51;;;;;;;27.17;13.77;;;;;;;6.41;48.89;100574.91;5043359;28;20041;-66
2021/03/12 08:42:17;;;;;;;25.90;12.77;;;;;;;6.42;48.87;100578.38;5047393;28;20033;-66
2021/03/12 08:44:43;;;;;;;26.03;14.00;;;;;;;6.60;50.08;100571.75;5043102;28;20041;-71
2021/03/12 08:47:08;;;;;;;44.37;17.50;;;;;;;7.05;47.87;100562.09;5055045;28;20035;-64
2021/03/12 08:49:34;;;;;;;51.88;18.08;;;;;;;7.27;47.12;100554.19;5060967;28;20041;-67
2021/03/12 08:52:01;;;;;;;41.35;15.88;;;;;;;7.65;48.68;100552.94;5042752;28;20028;-67
2021/03/12 08:54:29;;;;;;;20.67;11.60;;;;;;;8.25;47.17;100535.69;5045470;28;20021;-67
2021/03/12 08:56:55;;;;;;;21.42;12.60;;;;;;;9.00;43.15;100530.22;5041953;28;20115;-67
2021/03/12 08:59:28;;;;;;;22.95;13.35;;;;;;;9.12;44.26;100530.97;5044650;28;20041;-72
2021/03/12 09:01:57;;;;;;;21.23;12.13;;;;;;;9.26;43.08;100527.94;5044908;28;20033;-72
2021/03/12 09:04:29;;;;;;;23.38;12.27;;;;;;;8.81;45.00;100536.25;5042180;28;20021;-67
2021/03/12 09:07:00;;;;;;;22.27;12.32;;;;;;;8.64;43.53;100526.28;5043082;28;20109;-72
2021/03/12 09:09:27;;;;;;;28.30;13.32;;;;;;;8.55;44.66;100535.81;5045293;28;20270;-64
2021/03/12 09:11:56;;;;;;;26.48;13.40;;;;;;;8.55;43.58;100508.59;5046104;28;20033;-67
2021/03/12 09:14:22;;;;;;;19.73;11.30;;;;;;;8.73;43.34;100517.59;5041788;28;20049;-67
2021/03/12 09:16:47;;;;;;;23.38;11.57;;;;;;;8.74;42.25;100516.63;5045343;28;20266;-67
2021/03/12 09:19:13;;;;;;;18.77;9.52;;;;;;;8.20;41.43;100498.31;5043446;28;20110;-67
2021/03/12 09:21:39;;;;;;;17.33;10.25;;;;;;;8.55;40.54;100495.41;5047682;28;20044;-66
2021/03/12 09:24:05;;;;;;;17.55;9.82;;;;;;;8.91;42.21;100492.22;5047015;28;20334;-66
2021/03/12 09:26:34;;;;;;;21.48;11.05;;;;;;;8.66;42.50;100476.84;5047190;28;20583;-71
2021/03/12 09:29:07;;;;;;;20.63;11.45;;;;;;;8.78;41.75;100467.03;5061265;28;20067;-67
2021/03/12 09:31:38;;;;;;;18.25;11.15;;;;;;;9.08;44.27;100460.88;5049717;28;20049;-66
2021/03/12 09:34:05;;;;;;;18.98;10.75;;;;;;;9.64;42.54;100453.19;5045672;28;20171;-72
2021/03/12 09:36:42;;;;;;;22.65;11.77;;;;;;;10.02;41.04;100441.75;5049809;28;20026;-66
2021/03/12 09:39:37;;;;;;;22.92;12.80;;;;;;;10.21;42.37;100430.31;5047052;28;20226;-72
2021/03/12 09:42:07;;;;;;;18.30;11.85;;;;;;;10.24;40.00;100422.94;5051247;28;20030;-72
2021/03/12 09:44:33;;;;;;;17.83;11.60;;;;;;;9.78;40.88;100422.84;5047840;28;20248;-68
2021/03/12 09:47:04;;;;;;;28.00;13.88;;;;;;;9.39;42.36;100422.84;5048064;28;20017;-66
2021/03/12 09:49:36;;;;;;;40.65;15.65;;;;;;;9.63;41.98;100417.16;5054890;28;20036;-66
2021/03/12 09:52:20;;;;;;;20.13;11.32;;;;;;;8.79;46.28;100416.72;5062451;28;20036;-66
2021/03/12 09:54:49;;;;;;;19.45;11.13;;;;;;;8.07;46.74;100405.34;5046172;28;20196;-66
2021/03/12 09:57:19;;;;;;;22.40;12.38;;;;;;;7.67;48.04;100412.16;5044620;28;20013;-66
2021/03/12 09:59:52;;;;;;;20.50;12.40;;;;;;;7.63;49.08;100408.09;5048955;28;20036;-66
2021/03/12 10:02:18;;;;;;;21.65;12.48;;;;;;;7.60;48.65;100408.38;5044602;28;20048;-72
2021/03/12 10:04:47;;;;;;;23.35;12.43;;;;;;;7.69;48.75;100412.03;5045168;28;20040;-69
2021/03/12 10:07:16;;;;;;;26.10;12.90;;;;;;;7.29;49.84;100404.78;5048295;28;20283;-66
2021/03/12 10:09:48;;;;;;;21.88;13.20;;;;;;;6.97;50.34;100403.88;5046150;28;20041;-66
2021/03/12 10:12:21;;;;;;;21.08;11.82;;;;;;;6.95;50.21;100397.91;5044283;28;20080;-67
2021/03/12 10:14:49;;;;;;;22.17;13.53;;;;;;;6.82;51.07;100392.78;5046392;28;20044;-72
2021/03/12 10:17:20;;;;;;;24.40;12.45;;;;;;;7.03;51.02;100398.13;5050829;28;20388;-67
2021/03/12 10:19:51;;;;;;;23.23;12.73;;;;;;;6.76;51.77;100397.69;5060783;28;20074;-72
2021/03/12 10:22:27;;;;;;;25.23;12.70;;;;;;;7.12;51.87;100394.75;5063510;28;20098;-72
2021/03/12 10:24:55;;;;;;;23.83;13.20;;;;;;;7.40;50.27;100393.34;5047680;28;20059;-69
2021/03/12 10:27:22;;;;;;;24.40;12.82;;;;;;;7.40;49.08;100398.63;5062799;28;20033;-64
2021/03/12 10:29:49;;;;;;;22.63;12.07;;;;;;;7.34;49.67;100407.88;5057315;28;20319;-63
2021/03/12 10:32:15;;;;;;;24.55;12.60;;;;;;;7.49;48.48;100403.13;5044762;28;20088;-64
2021/03/12 10:34:45;;;;;;;24.75;13.27;;;;;;;7.52;48.92;100394.16;5046751;28;20033;-73
2021/03/12 10:37:13;;;;;;;22.80;13.25;;;;;;;7.60;47.97;100391.72;5045553;28;20083;-73
2021/03/12 10:39:43;;;;;;;26.23;13.23;;;;;;;7.93;46.78;100391.53;5049241;28;20314;-66
2021/03/12 10:42:10;;;;;;;23.10;13.23;;;;;;;8.01;47.09;100394.34;5047068;28;20092;-71
2021/03/12 10:45:29;;;;;;;26.17;13.52;;;;;;;8.33;46.10;100380.28;5045881;28;20311;-66
2021/03/12 10:48:04;;;;;;;24.50;13.35;;;;;;;8.40;48.58;100384.06;5048485;28;20037;-72
2021/03/12 10:50:35;;;;;;;30.38;14.85;;;;;;;8.48;46.95;100383.41;5050622;28;20320;-66
2021/03/12 10:53:05;;;;;;;24.15;13.45;;;;;;;8.49;45.48;100371.88;5045285;28;20141;-66
2021/03/12 10:55:36;;;;;;;25.08;14.23;;;;;;;8.57;46.09;100364.13;5045197;28;20037;-66
2021/03/12 10:58:02;;;;;;;22.40;13.93;;;;;;;8.80;45.66;100368.22;5043272;28;20055;-67
2021/03/12 11:00:30;;;;;;;26.00;13.98;;;;;;;9.02;45.99;100363.66;5047178;28;20029;-67
2021/03/12 11:02:58;;;;;;;25.75;13.40;;;;;;;9.12;46.18;100370.63;5076144;28;20359;-67
2021/03/12 11:05:23;;;;;;;29.30;14.60;;;;;;;9.29;46.25;100362.00;5044823;28;20041;-72
2021/03/12 11:07:51;;;;;;;25.00;14.18;;;;;;;9.25;45.01;100354.50;5045939;28;20033;-66
2021/03/12 11:10:17;;;;;;;26.67;14.65;;;;;;;9.20;45.55;100347.00;5047365;28;20104;-67
2021/03/12 11:12:45;;;;;;;21.10;14.40;;;;;;;9.20;46.17;100340.88;5044235;28;20100;-72
2021/03/12 11:15:13;;;;;;;26.98;15.13;;;;;;;9.27;46.12;100332.25;5045358;28;20028;-72
2021/03/12 11:17:41;;;;;;;24.90;15.50;;;;;;;8.67;46.75;100314.81;5046677;28;20035;-66
2021/03/12 11:20:08;;;;;;;23.60;14.80;;;;;;;8.46;48.33;100333.38;5044889;28;20037;-66
2021/03/12 11:22:34;;;;;;;25.55;13.88;;;;;;;8.33;46.78;100314.31;5045555;28;20096;-67
2021/03/12 11:25:05;;;;;;;26.95;15.18;;;;;;;8.48;47.67;100320.06;5046641;28;20054;-67